Time;durP1;ratioP1;P1;durP2;ratioP2;P2;SDS_P1;SDS_P2;PMS_P1;PMS_P2;Temp;Humidity;BMP_temperature;BMP_pressure;BME280_temperature;BME280_humidity;BME280_pressure;Samples;Min_cycle;Max_cycle;Signal;HPM_P1;HPM_P2
2022/11/24 00:01:19;;;;;;;24.25;7.78;;;5.70;99.90;;;;;;4935214;29;20027;-82
2022/11/24 00:03:51;;;;;;;15.02;7.03;;;5.70;99.90;;;;;;4935811;29;20034;-80
2022/11/24 00:06:17;;;;;;;18.42;7.60;;;5.70;99.90;;;;;;4936184;29;20479;-81
2022/11/24 00:08:44;;;;;;;16.48;7.03;;;5.70;99.90;;;;;;4935635;29;20119;-81
2022/11/24 00:11:16;;;;;;;16.77;7.78;;;5.70;99.90;;;;;;4935867;28;20039;-80
2022/11/24 00:13:43;;;;;;;18.15;8.20;;;5.70;99.90;;;;;;4930714;29;20039;-80
2022/11/24 00:16:13;;;;;;;22.90;9.63;;;5.60;99.90;;;;;;4929173;29;20634;-82
2022/11/24 00:18:40;;;;;;;20.95;7.25;;;5.60;99.90;;;;;;4934000;29;20019;-80
2022/11/24 00:21:06;;;;;;;17.00;6.82;;;5.70;99.90;;;;;;4938490;29;20111;-81
2022/11/24 00:23:34;;;;;;;15.02;7.40;;;5.70;99.90;;;;;;4934732;29;20114;-81
2022/11/24 00:26:07;;;;;;;13.82;6.35;;;5.60;99.90;;;;;;4932142;28;20046;-81
2022/11/24 00:28:34;;;;;;;15.38;6.22;;;5.60;99.90;;;;;;4930407;29;20024;-81
2022/11/24 00:31:00;;;;;;;13.23;5.78;;;5.60;99.90;;;;;;4927835;29;20385;-80
2022/11/24 00:33:25;;;;;;;17.00;6.53;;;5.60;99.90;;;;;;4943192;29;20035;-81
2022/11/24 00:35:58;;;;;;;17.60;6.38;;;5.50;99.90;;;;;;4933143;28;20016;-81
2022/11/24 00:38:23;;;;;;;10.43;5.68;;;5.60;99.90;;;;;;4931016;29;20625;-80
2022/11/24 00:40:50;;;;;;;12.82;6.60;;;5.60;99.90;;;;;;4938903;29;20106;-80
2022/11/24 00:43:18;;;;;;;19.38;6.60;;;5.60;99.90;;;;;;4935119;29;20032;-81
2022/11/24 00:45:43;;;;;;;14.95;6.15;;;5.60;99.90;;;;;;4933952;29;20414;-82
2022/11/24 00:48:09;;;;;;;12.38;6.10;;;5.60;99.90;;;;;;4938227;29;20081;-82
2022/11/24 00:50:36;;;;;;;20.73;7.22;;;5.60;99.90;;;;;;4939975;29;20087;-81
2022/11/24 00:53:01;;;;;;;17.95;8.25;;;5.60;99.90;;;;;;4941658;28;20027;-82
2022/11/24 00:55:27;;;;;;;18.05;7.35;;;5.60;99.90;;;;;;4931781;29;20036;-80
2022/11/24 00:57:52;;;;;;;9.40;6.60;;;5.60;99.90;;;;;;4933088;29;20023;-79
2022/11/24 01:00:18;;;;;;;17.30;7.70;;;5.60;99.90;;;;;;4931832;29;20026;-80
2022/11/24 01:02:44;;;;;;;19.23;7.00;;;5.70;99.90;;;;;;4940353;29;20381;-80
2022/11/24 01:05:10;;;;;;;14.52;7.07;;;5.60;99.90;;;;;;4931296;29;20050;-79
2022/11/24 01:07:36;;;;;;;21.67;6.30;;;5.70;99.90;;;;;;4936058;29;20059;-82
2022/11/24 01:10:03;;;;;;;14.57;6.00;;;5.80;99.90;;;;;;4934982;29;20023;-81
2022/11/24 01:12:28;;;;;;;13.25;6.35;;;5.90;99.90;;;;;;4935009;28;20461;-80
2022/11/24 01:14:54;;;;;;;17.95;6.70;;;5.90;99.90;;;;;;4933838;28;20125;-82
2022/11/24 01:17:20;;;;;;;14.13;6.32;;;5.90;99.90;;;;;;4937954;29;20031;-82
2022/11/24 01:19:49;;;;;;;11.77;6.43;;;5.90;99.90;;;;;;4929891;28;20389;-82
2022/11/24 01:22:15;;;;;;;14.52;7.25;;;6.00;99.90;;;;;;4933636;29;20107;-82
2022/11/24 01:24:41;;;;;;;15.80;5.97;;;6.10;99.90;;;;;;4940069;29;20110;-82
2022/11/24 01:27:06;;;;;;;12.52;6.85;;;6.00;99.90;;;;;;4931827;28;20047;-84
2022/11/24 01:29:32;;;;;;;13.18;6.00;;;6.00;99.90;;;;;;4939213;28;20041;-81
2022/11/24 01:31:57;;;;;;;12.82;5.82;;;6.00;99.90;;;;;;4933159;28;20027;-82
2022/11/24 01:34:23;;;;;;;13.43;5.70;;;5.90;99.90;;;;;;4936207;29;20395;-82
2022/11/24 01:36:49;;;;;;;8.43;4.90;;;5.90;99.90;;;;;;4935377;29;20059;-83
2022/11/24 01:39:15;;;;;;;6.95;3.97;;;5.90;99.90;;;;;;4928216;29;20024;-81
2022/11/24 01:41:40;;;;;;;6.65;3.42;;;6.00;99.90;;;;;;4929861;29;20073;-82
2022/11/24 01:44:27;;;;;;;6.18;3.78;;;6.00;99.90;;;;;;4936403;29;21007;-81
2022/11/24 01:47:31;;;;;;;12.60;3.10;;;6.10;99.90;;;;;;4925857;29;20099;-81
2022/11/24 01:50:00;;;;;;;4.40;3.28;;;6.10;99.90;;;;;;4929900;28;20042;-82
2022/11/24 01:52:54;;;;;;;5.22;2.90;;;6.10;99.90;;;;;;4933526;29;20049;-82
2022/11/24 01:55:28;;;;;;;10.80;4.00;;;6.10;99.90;;;;;;4927231;29;21031;-82
2022/11/24 01:58:04;;;;;;;11.23;3.22;;;6.10;99.90;;;;;;4929377;28;20032;-81
2022/11/24 02:00:30;;;;;;;8.32;3.80;;;6.10;99.90;;;;;;4929223;29;20126;-81
2022/11/24 02:02:58;;;;;;;8.57;3.25;;;6.10;99.90;;;;;;4929368;29;20163;-84
2022/11/24 02:05:31;;;;;;;15.50;4.07;;;6.10;99.90;;;;;;4929843;28;20062;-81
2022/11/24 02:08:00;;;;;;;12.20;3.90;;;6.10;99.90;;;;;;4928945;29;20298;-81
2022/11/24 02:10:26;;;;;;;5.65;3.75;;;6.10;99.90;;;;;;4933888;28;20024;-83
2022/11/24 02:12:54;;;;;;;13.18;4.68;;;6.00;99.90;;;;;;4930638;29;20103;-82
2022/11/24 02:15:22;;;;;;;21.08;4.57;;;6.00;99.90;;;;;;4936241;29;20082;-81
2022/11/24 02:17:47;;;;;;;8.35;4.43;;;6.00;99.90;;;;;;4937257;29;20051;-81
2022/11/24 02:20:15;;;;;;;9.98;3.83;;;6.00;99.90;;;;;;4929041;29;20418;-82
2022/11/24 02:23:12;;;;;;;13.98;4.38;;;6.00;99.90;;;;;;4933793;28;20460;-83
2022/11/24 02:25:50;;;;;;;8.48;4.00;;;6.00;99.90;;;;;;4930667;29;20476;-82
2022/11/24 02:28:19;;;;;;;11.57;4.68;;;6.10;99.90;;;;;;4926652;29;20027;-80
2022/11/24 02:30:45;;;;;;;12.65;3.92;;;6.00;99.90;;;;;;4933867;29;20024;-83
2022/11/24 02:33:12;;;;;;;8.70;3.58;;;6.00;99.90;;;;;;4920973;29;20023;-82
2022/11/24 02:35:38;;;;;;;10.60;5.07;;;6.10;99.90;;;;;;4937646;28;20035;-81
2022/11/24 02:38:03;;;;;;;9.70;4.38;;;6.00;99.90;;;;;;4937973;29;20453;-80
2022/11/24 02:40:30;;;;;;;11.68;5.75;;;6.00;99.90;;;;;;4935411;29;20031;-82
2022/11/24 02:43:03;;;;;;;14.43;4.95;;;6.00;99.90;;;;;;4927453;29;20023;-82
2022/11/24 02:45:30;;;;;;;19.17;6.80;;;6.00;99.90;;;;;;4939539;29;20027;-83
2022/11/24 02:47:55;;;;;;;19.50;5.47;;;6.00;99.90;;;;;;4934911;29;20052;-82
2022/11/24 02:50:21;;;;;;;16.83;4.88;;;6.00;99.90;;;;;;4928518;28;20240;-82
2022/11/24 02:52:47;;;;;;;14.55;5.30;;;5.90;99.90;;;;;;4933048;29;20475;-82
2022/11/24 02:55:12;;;;;;;11.85;5.30;;;5.90;99.90;;;;;;4934124;29;20047;-83
2022/11/24 02:57:38;;;;;;;13.98;5.90;;;5.80;99.90;;;;;;4938412;28;20019;-82
2022/11/24 03:00:04;;;;;;;33.03;6.18;;;5.80;99.90;;;;;;4931468;29;20445;-82
2022/11/24 03:02:29;;;;;;;10.55;5.05;;;5.80;99.90;;;;;;4941366;29;20019;-82
2022/11/24 03:04:55;;;;;;;13.43;5.45;;;5.80;99.90;;;;;;4933136;29;20027;-82
2022/11/24 03:07:21;;;;;;;14.13;5.82;;;5.80;99.90;;;;;;4935928;29;20372;-81
2022/11/24 03:09:47;;;;;;;17.00;5.55;;;5.80;99.90;;;;;;4939869;29;20023;-82
2022/11/24 03:12:13;;;;;;;14.55;5.80;;;5.80;99.90;;;;;;4935419;29;20062;-82
2022/11/24 03:14:38;;;;;;;15.27;5.43;;;5.80;99.90;;;;;;4937495;28;20477;-82
2022/11/24 03:17:04;;;;;;;16.90;6.47;;;5.80;99.90;;;;;;4940476;28;20030;-82
2022/11/24 03:19:30;;;;;;;29.85;7.25;;;5.80;99.90;;;;;;4940782;28;20059;-82
2022/11/24 03:21:55;;;;;;;23.98;5.47;;;5.80;99.90;;;;;;4935897;29;20106;-82
2022/11/24 03:24:21;;;;;;;16.55;5.68;;;5.90;99.90;;;;;;4934609;29;20031;-82
2022/11/24 03:26:47;;;;;;;12.00;4.95;;;5.90;99.90;;;;;;4939301;29;20020;-81
2022/11/24 03:29:13;;;;;;;15.55;5.60;;;5.90;99.90;;;;;;4936273;28;20118;-82
2022/11/24 03:31:39;;;;;;;14.93;6.35;;;5.80;99.90;;;;;;4942808;29;20512;-81
2022/11/24 03:34:04;;;;;;;13.68;5.68;;;5.80;99.90;;;;;;4937163;29;20027;-82
2022/11/24 03:36:30;;;;;;;25.42;6.15;;;5.80;99.90;;;;;;4940339;29;20050;-82
2022/11/24 03:38:55;;;;;;;18.23;5.75;;;5.80;99.90;;;;;;4934706;29;20023;-82
2022/11/24 03:41:21;;;;;;;8.80;5.03;;;5.70;99.90;;;;;;4939523;28;20031;-81
2022/11/24 03:43:46;;;;;;;15.30;5.88;;;5.70;99.90;;;;;;4935795;29;20027;-82
2022/11/24 03:46:12;;;;;;;7.93;5.10;;;5.70;99.90;;;;;;4935944;29;20028;-81
2022/11/24 03:48:38;;;;;;;20.23;6.68;;;5.60;99.90;;;;;;4946142;28;20031;-81
2022/11/24 03:51:04;;;;;;;16.77;7.15;;;5.60;99.90;;;;;;4934961;29;20036;-83
2022/11/24 03:53:30;;;;;;;14.57;6.70;;;5.60;99.90;;;;;;4935998;29;20329;-82
2022/11/24 03:55:56;;;;;;;11.82;6.03;;;5.50;99.90;;;;;;4939435;28;20035;-82
2022/11/24 03:58:23;;;;;;;13.55;7.43;;;5.50;99.90;;;;;;4934690;28;20020;-82
2022/11/24 04:00:50;;;;;;;14.45;6.35;;;5.50;99.90;;;;;;4936736;28;20019;-83
2022/11/24 04:03:16;;;;;;;17.48;7.30;;;5.50;99.90;;;;;;4931949;29;20062;-82
2022/11/24 04:05:41;;;;;;;11.70;5.78;;;5.40;99.90;;;;;;4935193;29;20055;-82
2022/11/24 04:08:07;;;;;;;13.07;6.40;;;5.40;99.90;;;;;;4935723;29;20063;-82
2022/11/24 04:10:35;;;;;;;23.83;7.80;;;5.30;99.90;;;;;;4931831;29;20023;-82
2022/11/24 04:13:02;;;;;;;14.27;6.93;;;5.30;99.90;;;;;;4938249;28;20078;-82
2022/11/24 04:15:28;;;;;;;17.30;6.93;;;5.20;99.90;;;;;;4937216;29;20118;-82
2022/11/24 04:17:55;;;;;;;22.05;8.07;;;5.20;99.90;;;;;;4936416;29;20106;-82
2022/11/24 04:20:21;;;;;;;19.65;7.25;;;5.20;99.90;;;;;;4932812;29;20373;-82
2022/11/24 04:22:48;;;;;;;26.02;8.80;;;5.20;99.90;;;;;;4928143;29;20018;-82
2022/11/24 04:25:16;;;;;;;24.40;8.60;;;5.20;99.90;;;;;;4935371;28;20023;-82
2022/11/24 04:27:45;;;;;;;12.18;7.65;;;5.30;99.90;;;;;;4933891;28;20027;-82
2022/11/24 04:30:11;;;;;;;13.20;7.45;;;5.20;99.90;;;;;;4913893;29;20031;-82
2022/11/24 04:32:36;;;;;;;14.77;7.35;;;5.20;99.90;;;;;;4937115;29;20108;-83
2022/11/24 04:35:03;;;;;;;19.98;7.13;;;5.20;99.90;;;;;;4926854;29;20795;-82
2022/11/24 04:37:28;;;;;;;28.38;8.88;;;5.10;99.90;;;;;;4930737;29;20020;-82
2022/11/24 04:39:54;;;;;;;22.80;6.97;;;5.10;99.90;;;;;;4930410;29;20023;-82
2022/11/24 04:42:20;;;;;;;21.23;7.35;;;5.20;99.90;;;;;;4927545;29;20031;-82
2022/11/24 04:44:46;;;;;;;44.45;8.52;;;5.40;99.90;;;;;;4933507;29;20058;-80
2022/11/24 04:47:18;;;;;;;30.40;6.95;;;5.70;99.90;;;;;;4934110;29;20082;-81
2022/11/24 04:49:45;;;;;;;44.47;7.97;;;5.90;99.90;;;;;;4934283;28;20028;-81
2022/11/24 04:52:10;;;;;;;25.48;5.63;;;6.10;99.90;;;;;;4941495;29;20035;-81
2022/11/24 04:54:36;;;;;;;33.53;6.88;;;6.20;99.90;;;;;;4933452;29;20145;-82
2022/11/24 04:57:01;;;;;;;28.17;6.60;;;6.20;99.90;;;;;;4930811;28;20030;-81
2022/11/24 04:59:27;;;;;;;33.50;6.25;;;6.20;99.90;;;;;;4924797;29;20020;-83
2022/11/24 05:01:53;;;;;;;40.03;7.30;;;6.30;99.90;;;;;;4939337;29;20031;-80
2022/11/24 05:04:20;;;;;;;29.15;5.93;;;6.40;99.90;;;;;;4932837;29;20071;-82
2022/11/24 05:06:45;;;;;;;31.38;6.95;;;6.40;99.90;;;;;;4942493;29;20027;-83
2022/11/24 05:09:14;;;;;;;33.08;7.15;;;6.40;99.90;;;;;;4934888;29;20032;-81
2022/11/24 05:11:40;;;;;;;23.42;6.07;;;6.40;99.90;;;;;;4935917;29;20476;-82
2022/11/24 05:14:06;;;;;;;14.90;4.95;;;6.50;99.90;;;;;;4935526;29;20054;-82
2022/11/24 05:16:31;;;;;;;31.35;5.95;;;6.50;99.90;;;;;;4939891;29;20357;-82
2022/11/24 05:18:57;;;;;;;19.63;5.15;;;6.50;99.90;;;;;;4934396;29;20059;-81
2022/11/24 05:21:22;;;;;;;29.08;6.18;;;6.70;99.90;;;;;;4935929;29;20055;-80
2022/11/24 05:23:48;;;;;;;32.60;6.85;;;6.70;99.90;;;;;;4930834;29;20020;-81
2022/11/24 05:26:13;;;;;;;28.27;4.72;;;6.70;99.90;;;;;;4930227;29;20032;-82
2022/11/24 05:28:39;;;;;;;27.25;5.85;;;6.80;99.90;;;;;;4933838;29;20028;-81
2022/11/24 05:31:05;;;;;;;32.20;5.55;;;6.80;99.90;;;;;;4938693;29;20027;-82
2022/11/24 05:33:32;;;;;;;24.42;5.25;;;6.80;99.90;;;;;;4928968;29;20075;-81
2022/11/24 05:36:03;;;;;;;21.70;4.57;;;6.80;99.90;;;;;;4937819;28;20031;-81
2022/11/24 05:38:29;;;;;;;12.77;4.13;;;6.80;99.90;;;;;;4931606;29;20511;-82
2022/11/24 05:40:59;;;;;;;19.50;4.70;;;6.70;99.90;;;;;;4941399;29;20027;-82
2022/11/24 05:43:25;;;;;;;20.58;5.10;;;6.70;99.90;;;;;;4942641;28;20031;-81
2022/11/24 05:45:50;;;;;;;20.85;5.05;;;6.60;99.90;;;;;;4935683;29;20027;-82
2022/11/24 05:48:16;;;;;;;25.27;5.25;;;6.60;99.90;;;;;;4934538;29;20052;-82
2022/11/24 05:50:42;;;;;;;24.08;4.93;;;6.50;99.90;;;;;;4937161;29;20045;-82
2022/11/24 05:53:10;;;;;;;18.65;4.20;;;6.50;99.90;;;;;;4933709;29;20447;-82
2022/11/24 05:55:38;;;;;;;20.75;4.68;;;6.40;99.90;;;;;;4930214;29;20058;-82
2022/11/24 05:58:06;;;;;;;29.42;5.20;;;6.50;99.90;;;;;;4937923;29;20032;-81
2022/11/24 06:00:34;;;;;;;20.10;4.05;;;6.50;99.90;;;;;;4937783;28;20038;-82
2022/11/24 06:03:00;;;;;;;15.13;5.10;;;6.50;99.90;;;;;;4931981;29;20019;-81
2022/11/24 06:05:27;;;;;;;22.50;4.43;;;6.50;99.90;;;;;;4931722;29;20024;-82
2022/11/24 06:07:53;;;;;;;15.27;4.65;;;6.50;99.90;;;;;;4936865;29;20031;-80
2022/11/24 06:10:21;;;;;;;22.10;4.65;;;6.50;99.90;;;;;;4942023;28;20078;-81
2022/11/24 06:12:47;;;;;;;35.03;5.20;;;6.40;99.90;;;;;;4935548;29;20016;-81
2022/11/24 06:15:13;;;;;;;10.45;4.00;;;6.40;99.90;;;;;;4931066;29;20396;-82
2022/11/24 06:17:39;;;;;;;13.10;4.22;;;6.40;99.90;;;;;;4933549;29;20484;-81
2022/11/24 06:20:06;;;;;;;15.85;3.80;;;6.30;99.90;;;;;;4936739;29;20043;-83
2022/11/24 06:22:32;;;;;;;24.02;4.88;;;6.30;99.90;;;;;;4926508;29;20114;-83
2022/11/24 06:24:58;;;;;;;25.42;4.65;;;6.20;99.90;;;;;;4917043;29;20122;-83
2022/11/24 06:27:24;;;;;;;24.52;4.72;;;6.30;99.90;;;;;;4928950;29;20031;-81
2022/11/24 06:29:50;;;;;;;24.88;5.13;;;6.20;99.90;;;;;;4932317;29;20045;-82
2022/11/24 06:32:15;;;;;;;17.67;4.90;;;6.30;99.90;;;;;;4938260;29;20465;-83
2022/11/24 06:34:43;;;;;;;17.63;4.15;;;6.40;99.90;;;;;;4933508;28;20130;-83
2022/11/24 06:37:09;;;;;;;24.85;5.80;;;6.40;99.90;;;;;;4932193;29;20023;-81
2022/11/24 06:39:34;;;;;;;22.00;4.88;;;6.40;99.90;;;;;;4938249;28;20046;-82
2022/11/24 06:42:00;;;;;;;15.18;4.47;;;6.60;99.90;;;;;;4939736;29;20382;-83
2022/11/24 06:44:26;;;;;;;28.55;6.20;;;6.60;99.90;;;;;;4935492;29;20465;-84
2022/11/24 06:46:51;;;;;;;31.58;5.82;;;6.60;99.90;;;;;;4942664;29;20054;-83
2022/11/24 06:49:17;;;;;;;15.43;4.40;;;6.50;99.90;;;;;;4951446;28;20411;-83
2022/11/24 06:51:43;;;;;;;19.73;4.65;;;6.50;99.90;;;;;;4935499;29;20020;-83
2022/11/24 06:54:13;;;;;;;31.02;5.32;;;6.50;99.90;;;;;;4940602;28;20039;-83
2022/11/24 06:56:38;;;;;;;23.55;5.18;;;6.40;99.90;;;;;;4929315;29;20032;-82
2022/11/24 06:59:04;;;;;;;18.20;4.82;;;6.30;99.90;;;;;;4934966;29;20447;-82
2022/11/24 07:01:30;;;;;;;19.67;4.30;;;6.30;99.90;;;;;;4937940;29;20028;-82
2022/11/24 07:03:56;;;;;;;12.80;4.50;;;6.20;99.90;;;;;;4938050;28;20024;-83
2022/11/24 07:06:23;;;;;;;20.88;5.05;;;6.20;99.90;;;;;;4940301;29;20031;-83
2022/11/24 07:08:49;;;;;;;18.48;4.40;;;6.10;99.90;;;;;;4934247;29;20022;-83
2022/11/24 07:11:19;;;;;;;24.08;4.90;;;6.10;99.90;;;;;;4939016;29;20023;-81
2022/11/24 07:13:45;;;;;;;20.77;5.03;;;6.10;99.90;;;;;;4933970;29;20083;-83
2022/11/24 07:16:15;;;;;;;13.82;3.75;;;6.00;99.90;;;;;;4935002;28;20386;-83
2022/11/24 07:18:43;;;;;;;28.92;7.20;;;5.90;99.90;;;;;;4935115;28;20058;-83
2022/11/24 07:21:09;;;;;;;33.25;5.18;;;5.90;99.90;;;;;;4937073;29;20491;-83
2022/11/24 07:23:35;;;;;;;15.45;5.13;;;5.80;99.90;;;;;;4941866;28;20035;-82
2022/11/24 07:26:05;;;;;;;15.95;5.60;;;5.80;99.90;;;;;;4939440;29;20087;-83
2022/11/24 07:28:31;;;;;;;17.67;5.05;;;5.70;99.90;;;;;;4941334;28;20033;-83
2022/11/24 07:30:57;;;;;;;21.38;5.97;;;5.70;99.90;;;;;;4933753;29;20406;-83
2022/11/24 07:33:26;;;;;;;10.90;4.13;;;5.60;99.90;;;;;;4930761;29;20042;-81
2022/11/24 07:35:52;;;;;;;14.23;4.07;;;5.50;99.90;;;;;;4932969;29;20067;-83
2022/11/24 07:38:18;;;;;;;19.80;5.15;;;5.50;99.90;;;;;;4934910;29;20059;-83
2022/11/24 07:40:44;;;;;;;16.90;4.32;;;5.50;99.90;;;;;;4936717;29;20469;-82
2022/11/24 07:43:10;;;;;;;17.05;5.00;;;5.40;99.90;;;;;;4935482;29;20050;-82
2022/11/24 07:45:37;;;;;;;25.23;7.40;;;5.40;99.90;;;;;;4938056;28;20471;-83
2022/11/24 07:48:03;;;;;;;20.20;5.32;;;5.40;99.90;;;;;;4941927;28;20051;-82
2022/11/24 07:50:28;;;;;;;17.05;6.18;;;5.40;99.90;;;;;;4943767;29;20607;-83
2022/11/24 07:52:54;;;;;;;18.52;5.78;;;5.40;99.90;;;;;;4937802;28;20087;-83
2022/11/24 07:55:20;;;;;;;16.90;5.18;;;5.40;99.90;;;;;;4940500;28;20424;-83
2022/11/24 07:57:45;;;;;;;23.25;6.93;;;5.40;99.90;;;;;;4936193;29;20071;-83
2022/11/24 08:00:11;;;;;;;37.10;7.32;;;5.40;99.90;;;;;;4930306;29;20377;-83
2022/11/24 08:02:37;;;;;;;17.38;5.57;;;5.50;99.90;;;;;;4934668;29;20087;-83
2022/11/24 08:05:04;;;;;;;38.42;6.65;;;5.50;99.90;;;;;;4934692;29;20123;-83
2022/11/24 08:07:29;;;;;;;29.75;6.88;;;5.60;99.90;;;;;;4933892;29;20379;-82
2022/11/24 08:09:55;;;;;;;22.95;5.35;;;5.70;99.90;;;;;;4927634;28;20023;-82
2022/11/24 08:12:21;;;;;;;40.15;5.93;;;5.90;99.90;;;;;;4933830;28;20017;-83
2022/11/24 08:14:49;;;;;;;30.88;5.75;;;6.00;99.90;;;;;;4934363;29;20095;-83
2022/11/24 08:17:15;;;;;;;29.08;6.35;;;6.10;99.90;;;;;;4929545;29;20044;-83
2022/11/24 08:19:41;;;;;;;27.77;6.18;;;6.20;99.90;;;;;;4934801;29;20861;-82
2022/11/24 08:22:06;;;;;;;26.38;4.97;;;6.30;99.90;;;;;;4942395;29;20037;-83
2022/11/24 08:24:32;;;;;;;29.17;5.97;;;6.30;99.90;;;;;;4934730;29;20057;-83
2022/11/24 08:26:58;;;;;;;24.88;4.85;;;6.40;99.90;;;;;;4934030;29;20024;-83
2022/11/24 08:29:28;;;;;;;27.40;5.90;;;6.40;99.90;;;;;;4929386;29;20027;-80
2022/11/24 08:31:56;;;;;;;26.20;6.43;;;6.50;99.90;;;;;;4938805;29;20066;-82
2022/11/24 08:34:24;;;;;;;29.42;6.93;;;6.50;99.90;;;;;;4930988;29;20491;-82
2022/11/24 08:36:51;;;;;;;28.65;5.85;;;6.60;99.90;;;;;;4933860;29;20042;-82
2022/11/24 08:39:17;;;;;;;29.40;7.50;;;6.60;99.90;;;;;;4933363;29;20034;-83
2022/11/24 08:41:43;;;;;;;34.83;6.55;;;6.70;99.90;;;;;;4931695;29;20044;-83
2022/11/24 08:44:09;;;;;;;24.05;5.57;;;6.90;99.90;;;;;;4932200;29;20397;-82
2022/11/24 08:46:35;;;;;;;32.78;6.15;;;7.00;99.90;;;;;;4939013;28;20047;-83
2022/11/24 08:49:01;;;;;;;49.22;7.88;;;7.00;99.90;;;;;;4938322;29;20031;-82
2022/11/24 08:51:27;;;;;;;26.20;6.57;;;7.20;99.90;;;;;;4941155;29;20039;-83
2022/11/24 08:53:57;;;;;;;34.08;6.22;;;7.40;99.90;;;;;;4938976;29;20024;-81
2022/11/24 08:56:27;;;;;;;40.97;6.88;;;7.50;99.90;;;;;;4931799;29;20044;-81
2022/11/24 08:58:53;;;;;;;45.72;8.30;;;7.50;99.90;;;;;;4939024;29;20050;-84
2022/11/24 09:01:19;;;;;;;33.47;6.78;;;7.70;99.90;;;;;;4932206;29;20031;-83
2022/11/24 09:03:48;;;;;;;46.40;7.65;;;7.70;99.90;;;;;;4933175;28;20400;-83
2022/11/24 09:06:15;;;;;;;31.98;5.75;;;7.90;99.90;;;;;;4933754;28;20063;-84
2022/11/24 09:08:40;;;;;;;29.17;5.40;;;7.90;99.90;;;;;;4941178;29;20115;-83
2022/11/24 09:11:09;;;;;;;28.08;6.18;;;7.90;99.90;;;;;;4941267;28;20109;-82
2022/11/24 09:13:36;;;;;;;21.48;5.22;;;7.90;99.90;;;;;;4930126;29;20035;-83
2022/11/24 09:16:07;;;;;;;30.85;5.50;;;7.80;99.90;;;;;;4940200;29;20039;-83
2022/11/24 09:18:33;;;;;;;35.80;6.88;;;7.80;99.90;;;;;;4926402;29;20049;-82
2022/11/24 09:21:17;;;;;;;31.45;6.97;;;8.00;99.90;;;;;;4944687;29;20028;-84
2022/11/24 09:23:43;;;;;;;32.70;9.15;;;8.00;99.90;;;;;;4934854;29;20135;-82
2022/11/24 09:26:14;;;;;;;43.13;7.10;;;8.00;99.90;;;;;;4944038;28;20053;-81
2022/11/24 09:28:41;;;;;;;41.30;7.03;;;8.00;99.90;;;;;;4931165;28;20027;-81
2022/11/24 09:31:09;;;;;;;42.80;7.13;;;8.00;99.90;;;;;;4937745;29;20044;-81
2022/11/24 09:33:35;;;;;;;39.58;7.38;;;8.00;99.90;;;;;;4937508;29;20040;-82
2022/11/24 09:36:02;;;;;;;30.63;5.78;;;8.00;99.90;;;;;;4927926;28;20043;-81
2022/11/24 09:38:29;;;;;;;45.88;5.82;;;8.10;99.90;;;;;;4937196;28;20533;-81
2022/11/24 09:40:55;;;;;;;30.48;5.15;;;8.10;99.90;;;;;;4932967;29;20026;-81
2022/11/24 09:43:38;;;;;;;40.53;7.93;;;8.10;99.90;;;;;;4932279;29;20055;-81
2022/11/24 09:46:53;;;;;;;16.67;4.32;;;8.10;99.90;;;;;;4934925;29;20078;-81
2022/11/24 09:49:36;;;;;;;27.58;7.50;;;8.10;99.90;;;;;;4929238;29;20047;-82
2022/11/24 09:52:08;;;;;;;42.88;6.43;;;8.10;99.90;;;;;;4936956;28;20031;-82
2022/11/24 09:54:37;;;;;;;24.77;5.63;;;8.00;99.90;;;;;;4924227;29;20039;-81
2022/11/24 09:57:04;;;;;;;34.63;6.25;;;8.00;99.90;;;;;;4939633;28;20039;-82
2022/11/24 09:59:30;;;;;;;24.73;5.03;;;8.00;99.90;;;;;;4937287;28;20059;-81
2022/11/24 10:01:56;;;;;;;33.00;4.75;;;8.00;99.90;;;;;;4943071;28;20023;-81
2022/11/24 10:04:29;;;;;;;33.65;5.70;;;8.00;99.90;;;;;;4936377;28;20040;-81
2022/11/24 10:07:10;;;;;;;21.10;4.50;;;8.00;99.90;;;;;;4934913;29;20024;-80
2022/11/24 10:09:54;;;;;;;30.40;5.03;;;8.00;99.90;;;;;;4941891;28;20035;-81
2022/11/24 10:12:48;;;;;;;41.03;7.15;;;8.00;99.90;;;;;;4938271;29;20035;-82
2022/11/24 10:15:44;;;;;;;26.58;6.47;;;8.10;99.90;;;;;;4931058;29;20035;-82
2022/11/24 10:18:25;;;;;;;31.75;8.10;;;8.20;99.90;;;;;;4937348;29;20031;-81
2022/11/24 10:21:22;;;;;;;19.02;4.55;;;8.30;99.90;;;;;;4923333;29;20106;-81
2022/11/24 10:24:15;;;;;;;15.07;3.40;;;8.40;99.90;;;;;;4938054;29;20036;-81
2022/11/24 10:26:55;;;;;;;28.50;5.57;;;8.40;99.90;;;;;;4943077;29;20484;-81
2022/11/24 10:29:32;;;;;;;26.33;4.72;;;8.40;99.90;;;;;;4933269;29;20035;-81
2022/11/24 10:31:57;;;;;;;21.55;4.95;;;8.50;99.90;;;;;;4937910;29;20027;-81
2022/11/24 10:34:30;;;;;;;93.72;38.60;;;8.50;99.90;;;;;;4934823;29;20409;-80
2022/11/24 10:37:36;;;;;;;31.90;5.35;;;8.50;99.90;;;;;;4933519;29;20036;-80
2022/11/24 10:40:33;;;;;;;33.30;5.83;;;8.50;99.90;;;;;;4852401;29;20064;-81
2022/11/24 10:42:59;;;;;;;29.92;5.15;;;8.60;99.90;;;;;;4852127;29;20293;-81
2022/11/24 10:45:28;;;;;;;28.73;6.47;;;8.60;99.90;;;;;;4911897;29;20412;-79
2022/11/24 10:47:54;;;;;;;28.52;4.72;;;8.70;99.90;;;;;;4925297;29;20060;-80
2022/11/24 10:50:25;;;;;;;19.85;4.22;;;8.70;99.90;;;;;;4934927;29;20035;-81
2022/11/24 10:53:16;;;;;;;28.70;3.72;;;8.70;99.90;;;;;;4943887;29;20077;-80
2022/11/24 10:55:53;;;;;;;18.13;4.22;;;8.70;99.90;;;;;;4935074;28;20043;-80
2022/11/24 10:58:22;;;;;;;25.55;3.95;;;8.70;99.90;;;;;;4929287;29;20035;-81
2022/11/24 11:00:48;;;;;;;19.15;3.88;;;8.70;99.90;;;;;;4944764;28;20035;-79
2022/11/24 11:03:23;;;;;;;14.00;3.20;;;8.70;99.90;;;;;;4940219;29;20070;-80
2022/11/24 11:05:54;;;;;;;20.08;3.65;;;8.70;99.90;;;;;;4939480;28;20027;-80
2022/11/24 11:08:29;;;;;;;15.25;3.22;;;8.70;99.90;;;;;;4933779;28;20032;-80
2022/11/24 11:11:20;;;;;;;16.08;3.65;;;8.70;99.90;;;;;;4937716;29;20034;-79
2022/11/24 11:13:52;;;;;;;25.60;3.67;;;8.70;99.90;;;;;;4932459;29;20382;-80
2022/11/24 11:16:25;;;;;;;17.40;3.83;;;8.70;99.90;;;;;;4937682;29;20055;-81
2022/11/24 11:18:51;;;;;;;18.77;3.38;;;8.80;99.90;;;;;;4936151;29;20026;-80
2022/11/24 11:21:33;;;;;;;21.38;3.45;;;8.90;99.90;;;;;;4940495;28;20546;-80
2022/11/24 11:24:01;;;;;;;20.00;5.18;;;8.90;99.90;;;;;;4945912;28;20035;-81
2022/11/24 11:26:33;;;;;;;25.10;4.88;;;8.90;99.90;;;;;;4942374;29;20059;-79
2022/11/24 11:29:15;;;;;;;25.20;4.57;;;8.90;99.90;;;;;;4939768;29;20035;-80
2022/11/24 11:31:41;;;;;;;17.15;3.60;;;8.90;99.90;;;;;;4940177;28;20027;-81
2022/11/24 11:34:17;;;;;;;30.60;5.97;;;9.00;99.90;;;;;;4922023;29;20066;-80
2022/11/24 11:36:45;;;;;;;19.20;3.95;;;9.00;99.90;;;;;;4941059;29;20499;-80
2022/11/24 11:39:22;;;;;;;15.00;3.45;;;9.00;99.90;;;;;;4935588;29;20079;-80
2022/11/24 11:41:59;;;;;;;35.47;10.68;;;9.00;99.90;;;;;;4942531;28;20271;-80
2022/11/24 11:44:38;;;;;;;18.73;5.65;;;9.00;99.90;;;;;;4933811;29;20501;-81
2022/11/24 11:47:28;;;;;;;25.10;6.05;;;9.10;99.90;;;;;;4936999;28;20083;-81
2022/11/24 11:49:53;;;;;;;13.63;4.72;;;9.00;99.90;;;;;;4935419;29;20481;-80
2022/11/24 11:52:28;;;;;;;13.32;3.33;;;9.00;99.90;;;;;;4937409;29;20114;-81
2022/11/24 11:55:12;;;;;;;16.80;3.92;;;9.00;99.90;;;;;;4940488;28;20321;-82
2022/11/24 11:58:09;;;;;;;18.92;3.85;;;9.00;99.90;;;;;;4936832;29;20492;-80
2022/11/24 12:00:40;;;;;;;16.10;3.67;;;9.10;99.90;;;;;;4932463;28;20039;-81
2022/11/24 12:03:34;;;;;;;20.35;5.25;;;9.10;99.90;;;;;;4933392;29;20470;-81
2022/11/24 12:06:23;;;;;;;20.08;4.93;;;9.10;99.90;;;;;;4939344;28;20093;-81
2022/11/24 12:09:03;;;;;;;21.98;3.90;;;9.10;99.90;;;;;;4935467;28;20968;-80
2022/11/24 12:12:06;;;;;;;17.48;4.43;;;9.10;99.90;;;;;;4937257;29;20059;-80
2022/11/24 12:14:54;;;;;;;36.28;12.10;;;9.00;99.90;;;;;;4934907;29;20035;-80
2022/11/24 12:17:31;;;;;;;25.13;6.72;;;9.10;99.90;;;;;;4938528;29;20051;-80
2022/11/24 12:20:12;;;;;;;19.25;4.07;;;9.10;99.90;;;;;;4936199;28;20449;-80
2022/11/24 12:23:03;;;;;;;31.75;5.57;;;9.00;99.90;;;;;;4946218;28;20393;-80
2022/11/24 12:25:41;;;;;;;19.30;3.75;;;9.10;99.90;;;;;;4931747;29;20035;-79
2022/11/24 12:28:36;;;;;;;27.55;4.00;;;9.10;99.90;;;;;;4932669;29;20049;-81
2022/11/24 12:31:11;;;;;;;28.35;3.88;;;9.10;99.90;;;;;;4937683;29;20038;-81
2022/11/24 12:34:09;;;;;;;16.90;3.90;;;9.20;99.90;;;;;;4941248;28;20059;-80
2022/11/24 12:36:50;;;;;;;20.58;4.05;;;9.20;99.90;;;;;;4938683;29;20040;-81
2022/11/24 12:39:49;;;;;;;23.77;4.65;;;9.20;99.90;;;;;;4941437;28;20028;-80
2022/11/24 12:42:53;;;;;;;13.98;3.10;;;9.20;99.90;;;;;;4942669;29;20031;-80
2022/11/24 12:45:27;;;;;;;15.90;4.18;;;9.10;99.90;;;;;;4902317;29;20043;-82
2022/11/24 12:48:32;;;;;;;14.65;3.33;;;9.20;99.90;;;;;;4942040;29;20464;-79
2022/11/24 12:50:59;;;;;;;20.50;3.70;;;9.20;99.90;;;;;;4893783;29;20039;-79
2022/11/24 12:53:30;;;;;;;19.58;5.15;;;9.20;99.90;;;;;;4935790;29;20110;-79
2022/11/24 12:56:07;;;;;;;14.68;3.33;;;9.10;99.90;;;;;;4937796;29;20044;-79
2022/11/24 12:58:51;;;;;;;18.77;3.30;;;9.10;99.90;;;;;;4936508;29;20119;-80
2022/11/24 13:01:49;;;;;;;15.45;3.13;;;9.10;99.90;;;;;;4932852;29;20031;-79
2022/11/24 13:04:33;;;;;;;13.27;3.28;;;9.20;99.90;;;;;;4935263;29;20099;-80